createdAt,value
2023-01-18T00:01:19.787Z,4.53
2023-01-18T00:03:47.105Z,4.53
2023-01-18T00:06:14.241Z,4.54
2023-01-18T00:08:42.715Z,4.53
2023-01-18T00:11:20.934Z,4.51
2023-01-18T00:13:48.237Z,4.50
2023-01-18T00:16:16.101Z,4.48
2023-01-18T00:18:48.992Z,4.49
2023-01-18T00:21:21.131Z,4.48
2023-01-18T00:23:48.270Z,4.49
2023-01-18T00:26:20.357Z,4.46
2023-01-18T00:28:47.373Z,4.47
2023-01-18T00:31:19.261Z,4.48
2023-01-18T00:33:47.524Z,4.47
2023-01-18T00:36:14.956Z,4.46
2023-01-18T00:38:41.846Z,4.47
2023-01-18T00:41:08.841Z,4.47
2023-01-18T00:43:38.974Z,4.48
2023-01-18T00:46:06.185Z,4.50
2023-01-18T00:48:33.603Z,4.51
2023-01-18T00:51:00.581Z,4.51
2023-01-18T00:53:27.690Z,4.52
2023-01-18T00:55:54.917Z,4.53
2023-01-18T00:58:22.068Z,4.55
2023-01-18T01:00:51.167Z,4.57
2023-01-18T01:03:19.001Z,4.58
2023-01-18T01:06:04.929Z,4.58
2023-01-18T01:08:32.137Z,4.58
2023-01-18T01:11:10.335Z,4.60
2023-01-18T01:13:56.232Z,4.60
2023-01-18T01:16:42.580Z,4.60
2023-01-18T01:19:28.501Z,4.60
2023-01-18T01:22:14.057Z,4.60
2023-01-18T01:25:04.984Z,4.60
2023-01-18T01:27:32.319Z,4.58
2023-01-18T01:29:59.268Z,4.55
2023-01-18T01:32:26.156Z,4.54
2023-01-18T01:34:53.116Z,4.56
2023-01-18T01:37:25.249Z,4.56
2023-01-18T01:39:57.570Z,4.54
2023-01-18T01:42:24.509Z,4.53
2023-01-18T01:44:52.243Z,4.53
2023-01-18T01:47:30.496Z,4.54
2023-01-18T01:50:00.509Z,4.56
2023-01-18T01:52:38.958Z,4.54
2023-01-18T01:55:29.656Z,4.54
2023-01-18T01:58:11.632Z,4.54
2023-01-18T02:00:38.592Z,4.55
2023-01-18T02:03:07.611Z,4.56
2023-01-18T02:05:37.334Z,4.57
2023-01-18T02:08:04.670Z,4.58
2023-01-18T02:10:31.676Z,4.59
2023-01-18T02:12:58.904Z,4.60
2023-01-18T02:15:31.399Z,4.59
2023-01-18T02:18:15.202Z,4.59
2023-01-18T02:21:11.748Z,4.60
2023-01-18T02:24:05.068Z,4.60
2023-01-18T02:27:05.707Z,4.59
2023-01-18T02:29:32.825Z,4.59
2023-01-18T02:32:29.091Z,4.56
2023-01-18T02:35:02.833Z,4.53
2023-01-18T02:37:50.003Z,4.53
2023-01-18T02:40:19.995Z,4.53
2023-01-18T02:43:05.785Z,4.52
2023-01-18T02:46:05.114Z,4.53
2023-01-18T02:48:42.574Z,4.53
2023-01-18T02:51:09.735Z,4.53
2023-01-18T02:53:43.221Z,4.51
2023-01-18T02:56:17.696Z,4.48
2023-01-18T02:58:53.985Z,4.46
2023-01-18T03:01:39.902Z,4.44
2023-01-18T03:04:19.801Z,4.46
2023-01-18T03:06:48.811Z,4.48
2023-01-18T03:09:22.719Z,4.50
2023-01-18T03:12:08.843Z,4.50
2023-01-18T03:14:47.877Z,4.50
2023-01-18T03:17:21.708Z,4.52
2023-01-18T03:20:07.975Z,4.53
2023-01-18T03:23:25.137Z,4.54
2023-01-18T03:25:55.063Z,4.57
2023-01-18T03:28:57.911Z,4.58
2023-01-18T03:32:03.754Z,4.59
2023-01-18T03:34:33.961Z,4.60
2023-01-18T03:37:03.094Z,4.60
2023-01-18T03:39:42.822Z,4.61
2023-01-18T03:42:21.233Z,4.63
2023-01-18T03:44:53.272Z,4.65
2023-01-18T03:47:20.636Z,4.67
2023-01-18T03:49:47.560Z,4.68
2023-01-18T03:52:16.487Z,4.68
2023-01-18T03:55:09.843Z,4.70
2023-01-18T03:57:58.900Z,4.70
2023-01-18T04:00:25.843Z,4.71
2023-01-18T04:02:53.013Z,4.72
2023-01-18T04:05:25.169Z,4.72
2023-01-18T04:07:52.177Z,4.72
2023-01-18T04:10:24.880Z,4.73
2023-01-18T04:12:57.936Z,4.74
2023-01-18T04:15:25.047Z,4.74
2023-01-18T04:17:55.815Z,4.73
2023-01-18T04:20:28.002Z,4.73
2023-01-18T04:22:55.056Z,4.74
2023-01-18T04:25:22.078Z,4.74
2023-01-18T04:28:00.667Z,4.73
2023-01-18T04:30:27.664Z,4.72
2023-01-18T04:32:54.746Z,4.72
2023-01-18T04:35:21.791Z,4.73
2023-01-18T04:37:54.755Z,4.72
2023-01-18T04:40:21.671Z,4.71
2023-01-18T04:42:59.230Z,4.71
2023-01-18T04:45:31.793Z,4.72
2023-01-18T04:47:58.848Z,4.73
2023-01-18T04:50:25.917Z,4.73
2023-01-18T04:52:52.955Z,4.72
2023-01-18T04:55:20.873Z,4.72
2023-01-18T04:57:47.979Z,4.72
2023-01-18T05:00:15.933Z,4.71
2023-01-18T05:02:48.114Z,4.70
2023-01-18T05:05:15.336Z,4.71
2023-01-18T05:07:42.384Z,4.70
2023-01-18T05:10:10.491Z,4.68
2023-01-18T05:12:38.010Z,4.69
2023-01-18T05:15:06.066Z,4.68
2023-01-18T05:17:38.454Z,4.69
2023-01-18T05:20:09.283Z,4.69
2023-01-18T05:22:37.419Z,4.68
2023-01-18T05:25:10.663Z,4.68
2023-01-18T05:27:37.598Z,4.69
2023-01-18T05:30:06.773Z,4.66
2023-01-18T05:32:34.051Z,4.63
2023-01-18T05:35:01.098Z,4.63
2023-01-18T05:37:28.250Z,4.65
2023-01-18T05:39:55.261Z,4.65
2023-01-18T05:42:22.185Z,4.68
2023-01-18T05:44:49.140Z,4.70
2023-01-18T05:47:16.362Z,4.70
2023-01-18T05:49:43.340Z,4.70
2023-01-18T05:52:10.811Z,4.71
2023-01-18T05:54:37.784Z,4.70
2023-01-18T05:57:04.728Z,4.70
2023-01-18T05:59:36.955Z,4.70
2023-01-18T06:02:09.704Z,4.68
2023-01-18T06:04:36.697Z,4.68
2023-01-18T06:07:09.467Z,4.68
2023-01-18T06:09:36.705Z,4.70
2023-01-18T06:12:03.749Z,4.70
2023-01-18T06:14:30.700Z,4.70
2023-01-18T06:16:57.643Z,4.69
2023-01-18T06:19:24.695Z,4.70
2023-01-18T06:21:51.687Z,4.70
2023-01-18T06:24:18.649Z,4.70
2023-01-18T06:26:45.594Z,4.69
2023-01-18T06:29:12.837Z,4.67
2023-01-18T06:31:39.903Z,4.67
2023-01-18T06:34:09.599Z,4.66
2023-01-18T06:36:37.528Z,4.66
2023-01-18T06:39:09.780Z,4.66
2023-01-18T06:41:36.819Z,4.66
2023-01-18T06:44:03.940Z,4.65
2023-01-18T06:46:36.027Z,4.65
2023-01-18T06:49:03.063Z,4.65
2023-01-18T06:51:35.100Z,4.66
2023-01-18T06:54:02.044Z,4.68
2023-01-18T06:56:29.462Z,4.68
2023-01-18T06:58:58.892Z,4.67
2023-01-18T07:01:26.443Z,4.67
2023-01-18T07:03:53.629Z,4.67
2023-01-18T07:06:20.553Z,4.63
2023-01-18T07:08:48.941Z,4.62
2023-01-18T07:11:16.744Z,4.63
2023-01-18T07:13:43.999Z,4.65
2023-01-18T07:16:18.245Z,4.66
2023-01-18T07:18:47.030Z,4.69
2023-01-18T07:21:15.352Z,4.71
2023-01-18T07:23:42.634Z,4.75
2023-01-18T07:26:16.599Z,4.79
2023-01-18T07:28:44.400Z,4.82
2023-01-18T07:31:11.381Z,4.84
2023-01-18T07:33:38.377Z,4.88
2023-01-18T07:36:06.654Z,4.89
2023-01-18T07:38:33.955Z,4.91
2023-01-18T07:41:06.395Z,4.94
2023-01-18T07:43:33.726Z,4.98
2023-01-18T07:46:01.587Z,5.01
2023-01-18T07:48:28.676Z,5.05
2023-01-18T07:51:00.388Z,5.09
2023-01-18T07:53:27.609Z,5.14
2023-01-18T07:55:55.164Z,5.18
2023-01-18T07:58:22.239Z,5.20
2023-01-18T08:00:49.169Z,5.22
2023-01-18T08:03:17.350Z,5.26
2023-01-18T08:05:44.612Z,5.29
2023-01-18T08:08:20.952Z,5.33
2023-01-18T08:10:47.793Z,5.36
2023-01-18T08:13:14.896Z,5.37
2023-01-18T08:15:41.961Z,5.39
2023-01-18T08:18:09.232Z,5.40
2023-01-18T08:20:36.453Z,5.40
2023-01-18T08:23:03.862Z,5.40
2023-01-18T08:25:32.036Z,5.36
2023-01-18T08:28:00.124Z,5.35
2023-01-18T08:30:28.498Z,5.34
2023-01-18T08:32:58.578Z,5.34
2023-01-18T08:35:26.758Z,5.33
2023-01-18T08:37:54.433Z,5.34
2023-01-18T08:40:22.282Z,5.35
2023-01-18T08:42:49.716Z,5.35
2023-01-18T08:45:16.807Z,5.34
2023-01-18T08:47:43.750Z,5.32
2023-01-18T08:50:13.988Z,5.32
2023-01-18T08:52:40.871Z,5.30
2023-01-18T08:55:08.799Z,5.29
2023-01-18T08:57:35.767Z,5.29
2023-01-18T09:00:04.316Z,5.31
2023-01-18T09:02:31.617Z,5.34
2023-01-18T09:05:04.443Z,5.39
2023-01-18T09:07:31.496Z,5.45
2023-01-18T09:09:58.712Z,5.51
2023-01-18T09:12:26.625Z,5.54
2023-01-18T09:14:53.536Z,5.58
2023-01-18T09:17:21.451Z,5.57
2023-01-18T09:19:48.440Z,5.59
2023-01-18T09:22:15.580Z,5.64
2023-01-18T09:24:43.054Z,5.63
2023-01-18T09:27:11.090Z,5.66
2023-01-18T09:29:37.993Z,5.68
2023-01-18T09:32:05.413Z,5.69
2023-01-18T09:34:32.463Z,5.69
2023-01-18T09:36:59.454Z,5.69
2023-01-18T09:39:26.637Z,5.66
2023-01-18T09:41:57.095Z,5.62
2023-01-18T09:44:31.642Z,5.54
2023-01-18T09:47:07.305Z,5.46
2023-01-18T09:49:38.525Z,5.40
2023-01-18T09:52:19.617Z,5.32
2023-01-18T09:55:08.463Z,5.29
2023-01-18T09:57:52.027Z,5.29
2023-01-18T10:00:21.145Z,5.28
2023-01-18T10:02:50.046Z,5.26
2023-01-18T10:05:21.676Z,5.22
2023-01-18T10:08:03.897Z,5.22
2023-01-18T10:10:40.276Z,5.25
2023-01-18T10:13:29.104Z,5.26
2023-01-18T10:15:56.365Z,5.27
2023-01-18T10:18:24.036Z,5.27
2023-01-18T10:20:58.194Z,5.25
2023-01-18T10:23:35.299Z,5.22
2023-01-18T10:26:04.298Z,5.21
2023-01-18T10:28:56.596Z,5.22
2023-01-18T10:31:39.132Z,5.24
2023-01-18T10:34:14.518Z,5.22
2023-01-18T10:36:44.087Z,5.20
2023-01-18T10:39:31.701Z,5.20
2023-01-18T10:42:00.954Z,5.20
2023-01-18T10:44:29.041Z,5.24
2023-01-18T10:47:00.409Z,5.27
2023-01-18T10:49:41.520Z,5.30
2023-01-18T10:52:29.223Z,5.35
2023-01-18T10:55:03.365Z,5.37
2023-01-18T10:57:50.115Z,5.37
2023-01-18T11:00:24.008Z,5.37
2023-01-18T11:02:51.460Z,5.37
2023-01-18T11:05:18.573Z,5.37
2023-01-18T11:07:45.538Z,5.37
2023-01-18T11:10:38.891Z,5.40
2023-01-18T11:13:25.214Z,5.45
2023-01-18T11:16:08.342Z,5.47
2023-01-18T11:18:35.388Z,5.50
2023-01-18T11:21:02.434Z,5.52
2023-01-18T11:23:35.895Z,5.54
2023-01-18T11:26:09.246Z,5.59
2023-01-18T11:28:44.162Z,5.61
2023-01-18T11:31:13.279Z,5.61
2023-01-18T11:33:50.613Z,5.61
2023-01-18T11:36:19.472Z,5.61
2023-01-18T11:38:46.763Z,5.60
2023-01-18T11:41:20.950Z,5.61
2023-01-18T11:43:57.592Z,5.60
2023-01-18T11:46:32.148Z,5.59
2023-01-18T11:49:39.461Z,5.57
2023-01-18T11:52:27.795Z,5.59
2023-01-18T11:54:57.788Z,5.57
2023-01-18T11:57:24.723Z,5.56
2023-01-18T11:59:51.730Z,5.55
2023-01-18T12:02:56.354Z,5.54
2023-01-18T12:05:36.805Z,5.54
2023-01-18T12:08:22.789Z,5.54
2023-01-18T12:10:49.775Z,5.51
2023-01-18T12:13:26.759Z,5.48
2023-01-18T12:16:02.865Z,5.47
2023-01-18T12:18:48.256Z,5.45
2023-01-18T12:21:41.401Z,5.44
2023-01-18T12:24:37.558Z,5.41
2023-01-18T12:27:30.521Z,5.39
2023-01-18T12:30:07.487Z,5.39
2023-01-18T12:32:44.034Z,5.39
2023-01-18T12:35:24.315Z,5.40
2023-01-18T12:38:20.225Z,5.40
2023-01-18T12:40:56.440Z,5.42
2023-01-18T12:43:26.511Z,5.43
2023-01-18T12:46:29.606Z,5.40
2023-01-18T12:49:02.276Z,5.42
2023-01-18T12:51:32.431Z,5.43
2023-01-18T12:54:12.782Z,5.45
2023-01-18T12:56:41.510Z,5.45
2023-01-18T12:59:16.038Z,5.46
2023-01-18T13:01:45.008Z,5.47
2023-01-18T13:04:18.054Z,5.47
2023-01-18T13:06:45.058Z,5.48
2023-01-18T13:09:15.165Z,5.48
2023-01-18T13:11:42.653Z,5.50
2023-01-18T13:14:18.550Z,5.50
2023-01-18T13:17:00.833Z,5.52
2023-01-18T13:19:33.516Z,5.54
2023-01-18T13:22:16.091Z,5.56
2023-01-18T13:24:49.415Z,5.61
2023-01-18T13:27:17.151Z,5.64
2023-01-18T13:29:44.194Z,5.66
2023-01-18T13:32:34.428Z,5.68
2023-01-18T13:35:20.414Z,5.69
2023-01-18T13:37:55.811Z,5.71
2023-01-18T13:40:42.052Z,5.73
2023-01-18T13:43:37.407Z,5.74
2023-01-18T13:46:25.385Z,5.75
2023-01-18T13:49:36.142Z,5.74
2023-01-18T13:52:30.711Z,5.76
2023-01-18T13:55:01.878Z,5.77
2023-01-18T13:57:30.678Z,5.76
2023-01-18T13:59:57.671Z,5.75
2023-01-18T14:02:32.143Z,5.76
2023-01-18T14:05:07.491Z,5.76
2023-01-18T14:07:45.756Z,5.74
2023-01-18T14:10:31.581Z,5.72
2023-01-18T14:13:02.428Z,5.69
2023-01-18T14:15:35.210Z,5.68
2023-01-18T14:18:03.084Z,5.67
2023-01-18T14:20:56.329Z,5.67
2023-01-18T14:23:33.641Z,5.66
2023-01-18T14:26:16.367Z,5.65
2023-01-18T14:29:01.985Z,5.63
2023-01-18T14:31:31.819Z,5.61
2023-01-18T14:33:58.755Z,5.61
2023-01-18T14:36:27.971Z,5.59
2023-01-18T14:39:17.849Z,5.59
2023-01-18T14:41:46.343Z,5.58
2023-01-18T14:44:18.174Z,5.59
2023-01-18T14:46:52.978Z,5.59
2023-01-18T14:49:29.417Z,5.58
2023-01-18T14:51:56.234Z,5.56
2023-01-18T14:54:25.025Z,5.54
2023-01-18T14:56:52.058Z,5.52
2023-01-18T14:59:22.880Z,5.50
2023-01-18T15:02:13.946Z,5.49
2023-01-18T15:04:45.638Z,5.48
2023-01-18T15:07:31.123Z,5.48
2023-01-18T15:09:58.379Z,5.47
2023-01-18T15:12:29.671Z,5.45
2023-01-18T15:14:56.908Z,5.45
2023-01-18T15:17:29.153Z,5.43
2023-01-18T15:19:57.954Z,5.40
2023-01-18T15:22:32.324Z,5.37
2023-01-18T15:24:59.496Z,5.36
2023-01-18T15:27:29.080Z,5.37
2023-01-18T15:29:59.307Z,5.36
2023-01-18T15:32:27.555Z,5.35
2023-01-18T15:34:55.384Z,5.34
2023-01-18T15:37:25.155Z,5.35
2023-01-18T15:39:58.287Z,5.36
2023-01-18T15:42:31.510Z,5.37
2023-01-18T15:44:59.120Z,5.36
2023-01-18T15:47:30.251Z,5.35
2023-01-18T15:49:58.975Z,5.32
2023-01-18T15:52:39.452Z,5.30
2023-01-18T15:55:27.474Z,5.28
2023-01-18T15:58:25.421Z,5.25
2023-01-18T16:01:21.648Z,5.23
2023-01-18T16:03:49.392Z,5.23
2023-01-18T16:06:18.917Z,5.20
2023-01-18T16:09:12.759Z,5.17
2023-01-18T16:11:46.700Z,5.14
2023-01-18T16:14:28.760Z,5.11
2023-01-18T16:16:56.658Z,5.09
2023-01-18T16:19:29.332Z,5.08
2023-01-18T16:22:01.125Z,5.06
2023-01-18T16:24:37.956Z,5.03
2023-01-18T16:27:15.630Z,5.01
2023-01-18T16:29:46.801Z,4.99
2023-01-18T16:32:17.767Z,4.98
2023-01-18T16:34:44.643Z,4.95
2023-01-18T16:37:11.677Z,4.94
2023-01-18T16:39:39.681Z,4.91
2023-01-18T16:42:06.706Z,4.88
2023-01-18T16:44:34.137Z,4.87
2023-01-18T16:47:01.438Z,4.85
2023-01-18T16:49:28.564Z,4.84
2023-01-18T16:51:56.197Z,4.84
2023-01-18T16:54:23.411Z,4.84
2023-01-18T16:56:50.391Z,4.84
2023-01-18T16:59:19.257Z,4.84
2023-01-18T17:01:46.670Z,4.84
2023-01-18T17:04:14.051Z,4.83
2023-01-18T17:06:41.737Z,4.83
2023-01-18T17:09:21.531Z,4.82
2023-01-18T17:11:48.779Z,4.83
2023-01-18T17:14:16.288Z,4.84
2023-01-18T17:16:43.393Z,4.83
2023-01-18T17:19:14.651Z,4.82
2023-01-18T17:21:41.844Z,4.80
2023-01-18T17:24:10.034Z,4.78
2023-01-18T17:26:38.475Z,4.78
2023-01-18T17:29:05.756Z,4.79
2023-01-18T17:31:35.232Z,4.78
2023-01-18T17:34:02.394Z,4.81
2023-01-18T17:36:29.509Z,4.83
2023-01-18T17:38:57.240Z,4.85
2023-01-18T17:41:27.649Z,4.85
2023-01-18T17:43:55.773Z,4.85
2023-01-18T17:46:22.796Z,4.85
2023-01-18T17:48:54.826Z,4.85
2023-01-18T17:51:21.984Z,4.84
2023-01-18T17:53:49.016Z,4.83
2023-01-18T17:56:17.357Z,4.83
2023-01-18T17:58:49.737Z,4.83
2023-01-18T18:01:17.027Z,4.82
2023-01-18T18:03:50.428Z,4.82
2023-01-18T18:06:30.795Z,4.80
2023-01-18T18:08:58.827Z,4.80
2023-01-18T18:11:25.793Z,4.79
2023-01-18T18:13:53.431Z,4.77
2023-01-18T18:16:22.345Z,4.77
2023-01-18T18:18:49.576Z,4.77
2023-01-18T18:21:16.889Z,4.76
2023-01-18T18:23:45.312Z,4.75
2023-01-18T18:26:12.340Z,4.74
2023-01-18T18:28:39.285Z,4.73
2023-01-18T18:31:06.641Z,4.70
2023-01-18T18:33:34.573Z,4.67
2023-01-18T18:36:01.567Z,4.65
2023-01-18T18:38:33.816Z,4.62
2023-01-18T18:41:04.815Z,4.59
2023-01-18T18:43:32.026Z,4.57
2023-01-18T18:45:59.026Z,4.53
2023-01-18T18:48:26.107Z,4.50
2023-01-18T18:50:53.475Z,4.49
2023-01-18T18:53:23.961Z,4.48
2023-01-18T18:56:00.387Z,4.49
2023-01-18T18:58:27.368Z,4.48
2023-01-18T19:00:54.507Z,4.48
2023-01-18T19:03:21.803Z,4.46
2023-01-18T19:05:49.012Z,4.45
2023-01-18T19:08:16.211Z,4.44
2023-01-18T19:10:43.289Z,4.44
2023-01-18T19:13:10.359Z,4.44
2023-01-18T19:15:37.315Z,4.44
2023-01-18T19:18:04.259Z,4.47
2023-01-18T19:20:38.147Z,4.49
2023-01-18T19:23:05.336Z,4.50
2023-01-18T19:25:32.531Z,4.52
2023-01-18T19:28:00.220Z,4.55
2023-01-18T19:30:27.419Z,4.60
2023-01-18T19:32:54.371Z,4.62
2023-01-18T19:35:21.941Z,4.65
2023-01-18T19:37:49.248Z,4.68
2023-01-18T19:40:16.414Z,4.71
2023-01-18T19:42:44.877Z,4.76
2023-01-18T19:45:19.694Z,4.79
2023-01-18T19:47:59.425Z,4.84
2023-01-18T19:50:27.569Z,4.86
2023-01-18T19:52:54.685Z,4.88
2023-01-18T19:55:21.870Z,4.91
2023-01-18T19:57:49.707Z,4.94
2023-01-18T20:00:17.244Z,4.98
2023-01-18T20:02:49.509Z,5.01
2023-01-18T20:05:16.842Z,5.04
2023-01-18T20:07:43.876Z,5.05
2023-01-18T20:10:11.258Z,5.07
2023-01-18T20:12:38.583Z,5.09
2023-01-18T20:15:06.450Z,5.10
2023-01-18T20:17:33.429Z,5.11
2023-01-18T20:20:00.502Z,5.10
2023-01-18T20:22:27.462Z,5.08
2023-01-18T20:24:59.902Z,5.08
2023-01-18T20:27:27.533Z,5.07
2023-01-18T20:29:54.471Z,5.07
2023-01-18T20:32:26.628Z,5.09
2023-01-18T20:34:53.642Z,5.12
2023-01-18T20:37:20.559Z,5.14
2023-01-18T20:39:52.703Z,5.18
2023-01-18T20:42:19.720Z,5.21
2023-01-18T20:44:53.934Z,5.22
2023-01-18T20:47:20.965Z,5.23
2023-01-18T20:49:49.120Z,5.24
2023-01-18T20:52:16.092Z,5.26
2023-01-18T20:54:43.045Z,5.26
2023-01-18T20:57:10.055Z,5.25
2023-01-18T20:59:42.301Z,5.25
2023-01-18T21:02:10.023Z,5.26
2023-01-18T21:04:37.126Z,5.26
2023-01-18T21:07:04.066Z,5.27
2023-01-18T21:09:31.099Z,5.28
2023-01-18T21:11:58.689Z,5.30
2023-01-18T21:14:30.684Z,5.31
2023-01-18T21:16:57.711Z,5.33
2023-01-18T21:19:24.737Z,5.34
2023-01-18T21:21:51.759Z,5.37
2023-01-18T21:24:18.887Z,5.37
2023-01-18T21:26:45.804Z,5.38
2023-01-18T21:29:12.827Z,5.36
2023-01-18T21:31:41.033Z,5.34
2023-01-18T21:34:08.267Z,5.33
2023-01-18T21:36:40.469Z,5.31
2023-01-18T21:39:08.050Z,5.32
2023-01-18T21:41:59.150Z,5.35
2023-01-18T21:44:44.808Z,5.37
2023-01-18T21:47:11.750Z,5.38
2023-01-18T21:50:17.148Z,5.39
2023-01-18T21:53:03.445Z,5.38
2023-01-18T21:55:30.458Z,5.39
2023-01-18T21:58:23.718Z,5.39
2023-01-18T22:00:50.730Z,5.40
2023-01-18T22:03:18.702Z,5.39
2023-01-18T22:05:45.804Z,5.39
2023-01-18T22:08:12.914Z,5.42
2023-01-18T22:10:39.835Z,5.42
2023-01-18T22:13:06.759Z,5.44
2023-01-18T22:15:33.757Z,5.45
2023-01-18T22:18:01.209Z,5.46
2023-01-18T22:20:30.845Z,5.47
2023-01-18T22:22:58.048Z,5.49
2023-01-18T22:25:25.039Z,5.49
2023-01-18T22:27:52.061Z,5.49
2023-01-18T22:30:19.085Z,5.50
2023-01-18T22:32:45.999Z,5.51
2023-01-18T22:35:12.987Z,5.53
2023-01-18T22:37:40.112Z,5.56
2023-01-18T22:40:08.343Z,5.55
2023-01-18T22:42:40.735Z,5.56
2023-01-18T22:45:08.079Z,5.56
2023-01-18T22:47:35.002Z,5.56
2023-01-18T22:50:02.009Z,5.55
2023-01-18T22:52:29.061Z,5.54
2023-01-18T22:54:56.042Z,5.52
2023-01-18T22:57:28.190Z,5.50
2023-01-18T22:59:55.124Z,5.50
2023-01-18T23:02:22.073Z,5.51
2023-01-18T23:04:49.014Z,5.52
2023-01-18T23:07:16.450Z,5.54
2023-01-18T23:09:43.436Z,5.57
2023-01-18T23:12:10.590Z,5.60
2023-01-18T23:14:56.406Z,5.60
2023-01-18T23:17:38.694Z,5.59
2023-01-18T23:20:12.077Z,5.61
2023-01-18T23:22:39.085Z,5.61
2023-01-18T23:25:06.247Z,5.61
2023-01-18T23:27:33.156Z,5.62
2023-01-18T23:30:00.146Z,5.61
2023-01-18T23:32:30.573Z,5.62
2023-01-18T23:34:58.352Z,5.62
2023-01-18T23:37:25.766Z,5.62
2023-01-18T23:40:11.509Z,5.61
2023-01-18T23:42:57.575Z,5.59
2023-01-18T23:45:43.320Z,5.55
2023-01-18T23:48:36.119Z,5.53
2023-01-18T23:51:22.237Z,5.50
2023-01-18T23:54:08.058Z,5.48
2023-01-18T23:56:35.034Z,5.47
2023-01-18T23:59:02.614Z,5.45
